sensor_id;sensor_type;location;lat;lon;timestamp;pressure;altitude;pressure_sealevel;temperature;humidity
46942;BME280;32676;52.630;4.896;2024-02-26T00:01:46;99114.56;;;5.43;84.63
46942;BME280;32676;52.630;4.896;2024-02-26T00:04:14;99131.50;;;5.53;84.48
46942;BME280;32676;52.630;4.896;2024-02-26T00:06:41;98971.81;;;4.64;84.35
46942;BME280;32676;52.630;4.896;2024-02-26T00:09:08;98993.53;;;4.85;84.45
46942;BME280;32676;52.630;4.896;2024-02-26T00:11:35;98982.81;;;4.71;84.43
46942;BME280;32676;52.630;4.896;2024-02-26T00:14:02;99044.47;;;5.14;84.33
46942;BME280;32676;52.630;4.896;2024-02-26T00:16:29;99030.97;;;5.05;84.28
46942;BME280;32676;52.630;4.896;2024-02-26T00:18:55;99038.78;;;5.05;84.17
46942;BME280;32676;52.630;4.896;2024-02-26T00:21:24;99107.41;;;5.48;84.31
46942;BME280;32676;52.630;4.896;2024-02-26T00:23:53;99068.75;;;5.15;84.20
46942;BME280;32676;52.630;4.896;2024-02-26T00:26:19;99001.63;;;4.77;84.10
46942;BME280;32676;52.630;4.896;2024-02-26T00:28:46;98992.31;;;4.72;84.14
46942;BME280;32676;52.630;4.896;2024-02-26T00:31:12;99081.59;;;5.42;84.18
46942;BME280;32676;52.630;4.896;2024-02-26T00:33:39;99008.69;;;4.97;84.16
46942;BME280;32676;52.630;4.896;2024-02-26T00:36:06;99018.84;;;5.04;84.20
46942;BME280;32676;52.630;4.896;2024-02-26T00:38:35;99022.00;;;5.12;84.16
46942;BME280;32676;52.630;4.896;2024-02-26T00:41:01;98996.81;;;4.90;84.35
46942;BME280;32676;52.630;4.896;2024-02-26T00:43:28;98994.88;;;4.95;84.30
46942;BME280;32676;52.630;4.896;2024-02-26T00:45:55;99048.16;;;5.31;84.46
46942;BME280;32676;52.630;4.896;2024-02-26T00:48:21;98986.03;;;4.99;84.56
46942;BME280;32676;52.630;4.896;2024-02-26T00:50:50;98881.16;;;4.31;84.46
46942;BME280;32676;52.630;4.896;2024-02-26T00:53:17;98991.81;;;5.08;84.63
46942;BME280;32676;52.630;4.896;2024-02-26T00:55:46;99012.94;;;5.22;84.59
46942;BME280;32676;52.630;4.896;2024-02-26T00:58:12;98992.53;;;5.11;84.84
46942;BME280;32676;52.630;4.896;2024-02-26T01:00:39;98955.06;;;4.93;84.69
46942;BME280;32676;52.630;4.896;2024-02-26T01:03:05;98967.56;;;5.06;84.70
46942;BME280;32676;52.630;4.896;2024-02-26T01:05:32;98942.09;;;4.92;84.73
46942;BME280;32676;52.630;4.896;2024-02-26T01:07:59;98822.69;;;4.19;84.90
46942;BME280;32676;52.630;4.896;2024-02-26T01:10:25;98793.19;;;4.20;84.83
46942;BME280;32676;52.630;4.896;2024-02-26T01:12:53;98930.47;;;5.00;84.89
46942;BME280;32676;52.630;4.896;2024-02-26T01:15:20;98809.16;;;4.33;84.96
46942;BME280;32676;52.630;4.896;2024-02-26T01:17:49;98899.63;;;4.91;85.17
46942;BME280;32676;52.630;4.896;2024-02-26T01:20:15;98884.91;;;4.90;85.01
46942;BME280;32676;52.630;4.896;2024-02-26T01:22:42;98777.34;;;4.27;85.08
46942;BME280;32676;52.630;4.896;2024-02-26T01:25:09;98868.78;;;4.82;85.25
46942;BME280;32676;52.630;4.896;2024-02-26T01:27:36;98849.75;;;4.80;85.23
46942;BME280;32676;52.630;4.896;2024-02-26T01:30:05;98811.41;;;4.63;85.44
46942;BME280;32676;52.630;4.896;2024-02-26T01:32:32;98807.72;;;4.69;85.52
46942;BME280;32676;52.630;4.896;2024-02-26T01:34:58;98791.97;;;4.51;85.78
46942;BME280;32676;52.630;4.896;2024-02-26T01:37:25;98789.88;;;4.59;85.77
46942;BME280;32676;52.630;4.896;2024-02-26T01:39:51;98786.50;;;4.57;85.99
46942;BME280;32676;52.630;4.896;2024-02-26T01:42:18;98772.84;;;4.52;85.92
46942;BME280;32676;52.630;4.896;2024-02-26T01:44:45;98754.13;;;4.44;86.14
46942;BME280;32676;52.630;4.896;2024-02-26T01:47:13;98757.22;;;4.52;86.16
46942;BME280;32676;52.630;4.896;2024-02-26T01:49:40;98761.53;;;4.53;86.29
46942;BME280;32676;52.630;4.896;2024-02-26T01:52:08;98757.50;;;4.46;86.40
46942;BME280;32676;52.630;4.896;2024-02-26T01:54:37;98759.66;;;4.57;86.43
46942;BME280;32676;52.630;4.896;2024-02-26T01:57:05;98721.47;;;4.37;86.38
46942;BME280;32676;52.630;4.896;2024-02-26T01:59:32;98748.53;;;4.53;86.50
46942;BME280;32676;52.630;4.896;2024-02-26T02:02:01;98746.81;;;4.52;86.50
46942;BME280;32676;52.630;4.896;2024-02-26T02:04:31;98667.34;;;4.04;86.49
46942;BME280;32676;52.630;4.896;2024-02-26T02:06:58;98663.94;;;4.02;86.60
46942;BME280;32676;52.630;4.896;2024-02-26T02:09:27;98680.88;;;4.12;86.66
46942;BME280;32676;52.630;4.896;2024-02-26T02:11:54;98738.25;;;4.50;86.71
46942;BME280;32676;52.630;4.896;2024-02-26T02:14:20;98690.88;;;4.21;86.79
46942;BME280;32676;52.630;4.896;2024-02-26T02:16:47;98725.38;;;4.47;86.76
46942;BME280;32676;52.630;4.896;2024-02-26T02:19:14;98703.66;;;4.28;86.80
46942;BME280;32676;52.630;4.896;2024-02-26T02:21:42;98745.28;;;4.48;86.76
46942;BME280;32676;52.630;4.896;2024-02-26T02:24:08;98743.56;;;4.47;86.95
46942;BME280;32676;52.630;4.896;2024-02-26T02:26:35;98717.72;;;4.44;86.93
46942;BME280;32676;52.630;4.896;2024-02-26T02:29:02;98559.59;;;3.50;86.88
46942;BME280;32676;52.630;4.896;2024-02-26T02:31:29;98715.16;;;4.42;86.90
46942;BME280;32676;52.630;4.896;2024-02-26T02:33:56;98713.47;;;4.41;87.09
46942;BME280;32676;52.630;4.896;2024-02-26T02:36:22;98590.13;;;3.65;86.91
46942;BME280;32676;52.630;4.896;2024-02-26T02:38:50;98719.50;;;4.42;87.05
46942;BME280;32676;52.630;4.896;2024-02-26T02:41:18;98643.31;;;3.99;87.12
46942;BME280;32676;52.630;4.896;2024-02-26T02:43:44;98691.50;;;4.28;87.28
46942;BME280;32676;52.630;4.896;2024-02-26T02:46:11;98712.63;;;4.41;87.38
46942;BME280;32676;52.630;4.896;2024-02-26T02:48:38;98612.94;;;3.79;87.27
46942;BME280;32676;52.630;4.896;2024-02-26T02:51:05;98710.94;;;4.40;87.35
46942;BME280;32676;52.630;4.896;2024-02-26T02:53:31;98692.34;;;4.29;87.48
46942;BME280;32676;52.630;4.896;2024-02-26T02:55:59;98735.09;;;4.42;87.61
46942;BME280;32676;52.630;4.896;2024-02-26T02:58:26;98631.84;;;3.82;87.30
46942;BME280;32676;52.630;4.896;2024-02-26T03:00:52;98732.50;;;4.42;87.10
46942;BME280;32676;52.630;4.896;2024-02-26T03:03:20;98720.50;;;4.39;87.33
46942;BME280;32676;52.630;4.896;2024-02-26T03:05:49;98695.03;;;4.26;87.32
46942;BME280;32676;52.630;4.896;2024-02-26T03:08:16;98735.97;;;4.42;87.13
46942;BME280;32676;52.630;4.896;2024-02-26T03:10:42;98734.25;;;4.41;87.17
46942;BME280;32676;52.630;4.896;2024-02-26T03:13:10;98592.47;;;3.71;87.00
46942;BME280;32676;52.630;4.896;2024-02-26T03:15:37;98707.53;;;4.38;86.96
46942;BME280;32676;52.630;4.896;2024-02-26T03:18:04;98677.84;;;4.23;86.98
46942;BME280;32676;52.630;4.896;2024-02-26T03:20:30;98694.03;;;4.30;87.05
46942;BME280;32676;52.630;4.896;2024-02-26T03:22:57;98671.91;;;4.19;87.02
46942;BME280;32676;52.630;4.896;2024-02-26T03:25:24;98673.41;;;4.25;86.85
46942;BME280;32676;52.630;4.896;2024-02-26T03:27:50;98666.97;;;4.13;87.03
46942;BME280;32676;52.630;4.896;2024-02-26T03:30:18;98568.03;;;3.55;86.79
46942;BME280;32676;52.630;4.896;2024-02-26T03:32:45;98672.03;;;4.16;87.06
46942;BME280;32676;52.630;4.896;2024-02-26T03:35:13;98701.78;;;4.31;87.04
46942;BME280;32676;52.630;4.896;2024-02-26T03:37:39;98704.16;;;4.36;87.04
46942;BME280;32676;52.630;4.896;2024-02-26T03:40:07;98693.09;;;4.31;86.91
46942;BME280;32676;52.630;4.896;2024-02-26T03:42:34;98682.03;;;4.26;86.94
46942;BME280;32676;52.630;4.896;2024-02-26T03:45:01;98644.88;;;4.03;86.91
46942;BME280;32676;52.630;4.896;2024-02-26T03:47:29;98591.50;;;3.74;87.03
46942;BME280;32676;52.630;4.896;2024-02-26T03:49:55;98695.25;;;4.21;87.16
46942;BME280;32676;52.630;4.896;2024-02-26T03:52:22;98631.59;;;3.89;87.17
46942;BME280;32676;52.630;4.896;2024-02-26T03:54:48;98546.97;;;3.40;86.87
46942;BME280;32676;52.630;4.896;2024-02-26T03:57:15;98665.38;;;4.09;87.14
46942;BME280;32676;52.630;4.896;2024-02-26T03:59:42;98690.78;;;4.25;87.16
46942;BME280;32676;52.630;4.896;2024-02-26T04:02:08;98697.78;;;4.22;87.08
46942;BME280;32676;52.630;4.896;2024-02-26T04:04:36;98656.97;;;4.04;87.05
46942;BME280;32676;52.630;4.896;2024-02-26T04:07:03;98668.81;;;4.11;87.11
46942;BME280;32676;52.630;4.896;2024-02-26T04:09:31;98693.63;;;4.18;87.07
46942;BME280;32676;52.630;4.896;2024-02-26T04:11:57;98606.63;;;3.64;87.05
46942;BME280;32676;52.630;4.896;2024-02-26T04:14:24;98626.78;;;3.79;86.97
46942;BME280;32676;52.630;4.896;2024-02-26T04:16:51;98642.69;;;3.92;86.94
46942;BME280;32676;52.630;4.896;2024-02-26T04:19:19;98732.66;;;4.39;87.01
46942;BME280;32676;52.630;4.896;2024-02-26T04:21:48;98746.50;;;4.39;87.07
46942;BME280;32676;52.630;4.896;2024-02-26T04:24:14;98719.25;;;4.28;86.85
46942;BME280;32676;52.630;4.896;2024-02-26T04:26:41;98733.44;;;4.41;87.17
46942;BME280;32676;52.630;4.896;2024-02-26T04:29:08;98702.13;;;4.22;86.97
46942;BME280;32676;52.630;4.896;2024-02-26T04:31:34;98720.16;;;4.27;87.15
46942;BME280;32676;52.630;4.896;2024-02-26T04:34:01;98663.25;;;3.98;87.15
46942;BME280;32676;52.630;4.896;2024-02-26T04:36:27;98726.69;;;4.37;87.01
46942;BME280;32676;52.630;4.896;2024-02-26T04:38:55;98637.81;;;3.84;87.18
46942;BME280;32676;52.630;4.896;2024-02-26T04:41:22;98665.53;;;4.06;87.26
46942;BME280;32676;52.630;4.896;2024-02-26T04:43:48;98586.06;;;3.58;87.26
46942;BME280;32676;52.630;4.896;2024-02-26T04:46:15;98693.31;;;4.26;87.63
46942;BME280;32676;52.630;4.896;2024-02-26T04:48:41;98655.25;;;4.03;87.44
46942;BME280;32676;52.630;4.896;2024-02-26T04:51:10;98605.88;;;3.82;87.57
46942;BME280;32676;52.630;4.896;2024-02-26T04:53:37;98557.81;;;3.50;87.48
46942;BME280;32676;52.630;4.896;2024-02-26T04:56:05;98677.72;;;4.26;87.66
46942;BME280;32676;52.630;4.896;2024-02-26T04:58:32;98682.03;;;4.26;87.62
46942;BME280;32676;52.630;4.896;2024-02-26T05:00:59;98656.59;;;4.13;87.61
46942;BME280;32676;52.630;4.896;2024-02-26T05:03:25;98604.31;;;3.78;87.64
46942;BME280;32676;52.630;4.896;2024-02-26T05:05:52;98671.75;;;4.24;87.62
46942;BME280;32676;52.630;4.896;2024-02-26T05:08:18;98600.06;;;3.76;87.66
46942;BME280;32676;52.630;4.896;2024-02-26T05:10:45;98670.09;;;4.21;87.70
46942;BME280;32676;52.630;4.896;2024-02-26T05:13:13;98595.72;;;3.76;87.47
46942;BME280;32676;52.630;4.896;2024-02-26T05:15:40;98636.28;;;4.01;87.69
46942;BME280;32676;52.630;4.896;2024-02-26T05:18:07;98660.06;;;4.12;87.54
46942;BME280;32676;52.630;4.896;2024-02-26T05:20:34;98667.75;;;4.15;87.51
46942;BME280;32676;52.630;4.896;2024-02-26T05:23:01;98658.25;;;4.14;87.55
46942;BME280;32676;52.630;4.896;2024-02-26T05:25:29;98653.22;;;4.11;87.23
46942;BME280;32676;52.630;4.896;2024-02-26T05:27:55;98654.03;;;4.12;87.39
46942;BME280;32676;52.630;4.896;2024-02-26T05:30:23;98590.84;;;3.69;87.10
46942;BME280;32676;52.630;4.896;2024-02-26T05:32:49;98608.31;;;3.85;87.08
46942;BME280;32676;52.630;4.896;2024-02-26T05:35:16;98653.06;;;4.14;86.92
46942;BME280;32676;52.630;4.896;2024-02-26T05:37:42;98589.69;;;3.76;86.78
46942;BME280;32676;52.630;4.896;2024-02-26T05:40:10;98576.75;;;3.74;86.74
46942;BME280;32676;52.630;4.896;2024-02-26T05:42:37;98532.84;;;3.48;86.53
46942;BME280;32676;52.630;4.896;2024-02-26T05:45:04;98630.81;;;4.07;86.73
46942;BME280;32676;52.630;4.896;2024-02-26T05:47:33;98576.75;;;3.74;86.49
46942;BME280;32676;52.630;4.896;2024-02-26T05:50:00;98624.75;;;4.08;86.55
46942;BME280;32676;52.630;4.896;2024-02-26T05:52:27;98623.81;;;4.09;86.52
46942;BME280;32676;52.630;4.896;2024-02-26T05:54:54;98591.84;;;3.87;86.45
46942;BME280;32676;52.630;4.896;2024-02-26T05:57:21;98612.06;;;4.00;86.62
46942;BME280;32676;52.630;4.896;2024-02-26T05:59:47;98595.34;;;3.85;86.78
46942;BME280;32676;52.630;4.896;2024-02-26T06:02:14;98581.00;;;3.77;86.49
46942;BME280;32676;52.630;4.896;2024-02-26T06:04:42;98613.78;;;4.00;86.43
46942;BME280;32676;52.630;4.896;2024-02-26T06:07:08;98558.28;;;3.60;86.62
46942;BME280;32676;52.630;4.896;2024-02-26T06:09:35;98639.00;;;3.98;86.29
46942;BME280;32676;52.630;4.896;2024-02-26T06:12:02;98638.44;;;4.12;86.38
46942;BME280;32676;52.630;4.896;2024-02-26T06:14:29;98589.75;;;3.74;86.54
46942;BME280;32676;52.630;4.896;2024-02-26T06:16:55;98609.25;;;3.84;86.34
46942;BME280;32676;52.630;4.896;2024-02-26T06:19:22;98555.16;;;3.52;86.52
46942;BME280;32676;52.630;4.896;2024-02-26T06:21:50;98533.19;;;3.38;86.46
46942;BME280;32676;52.630;4.896;2024-02-26T06:24:16;98530.06;;;3.30;86.25
46942;BME280;32676;52.630;4.896;2024-02-26T06:26:43;98666.97;;;4.13;86.39
46942;BME280;32676;52.630;4.896;2024-02-26T06:29:10;98665.16;;;4.15;86.37
46942;BME280;32676;52.630;4.896;2024-02-26T06:31:36;98643.31;;;3.99;86.34
46942;BME280;32676;52.630;4.896;2024-02-26T06:34:03;98484.31;;;3.05;86.16
46942;BME280;32676;52.630;4.896;2024-02-26T06:36:30;98530.91;;;3.31;86.01
46942;BME280;32676;52.630;4.896;2024-02-26T06:38:58;98664.63;;;4.07;86.28
46942;BME280;32676;52.630;4.896;2024-02-26T06:41:25;98660.47;;;4.03;86.29
46942;BME280;32676;52.630;4.896;2024-02-26T06:43:53;98646.81;;;3.98;86.01
46942;BME280;32676;52.630;4.896;2024-02-26T06:46:19;98681.53;;;4.17;86.20
46942;BME280;32676;52.630;4.896;2024-02-26T06:48:47;98675.44;;;4.18;86.02
46942;BME280;32676;52.630;4.896;2024-02-26T06:51:14;98674.13;;;4.08;85.95
46942;BME280;32676;52.630;4.896;2024-02-26T06:53:40;98693.53;;;4.20;85.75
46942;BME280;32676;52.630;4.896;2024-02-26T06:56:08;98610.00;;;3.66;85.54
46942;BME280;32676;52.630;4.896;2024-02-26T06:58:35;98687.63;;;4.16;85.54
46942;BME280;32676;52.630;4.896;2024-02-26T07:01:02;98695.38;;;4.18;85.40
46942;BME280;32676;52.630;4.896;2024-02-26T07:03:28;98706.38;;;4.25;85.43
46942;BME280;32676;52.630;4.896;2024-02-26T07:05:55;98732.97;;;4.31;85.29
46942;BME280;32676;52.630;4.896;2024-02-26T07:08:22;98746.31;;;4.22;85.23
46942;BME280;32676;52.630;4.896;2024-02-26T07:10:49;98787.13;;;4.42;85.30
46942;BME280;32676;52.630;4.896;2024-02-26T07:13:16;98743.50;;;4.06;85.09
46942;BME280;32676;52.630;4.896;2024-02-26T07:15:43;98786.03;;;4.26;84.83
46942;BME280;32676;52.630;4.896;2024-02-26T07:18:09;98852.44;;;4.56;84.93
46942;BME280;32676;52.630;4.896;2024-02-26T07:20:36;98863.66;;;4.58;84.45
46942;BME280;32676;52.630;4.896;2024-02-26T07:23:03;98770.00;;;3.92;84.39
46942;BME280;32676;52.630;4.896;2024-02-26T07:25:30;98883.28;;;4.66;84.22
46942;BME280;32676;52.630;4.896;2024-02-26T07:27:57;98866.47;;;4.52;83.87
46942;BME280;32676;52.630;4.896;2024-02-26T07:30:25;98878.44;;;4.56;83.47
46942;BME280;32676;52.630;4.896;2024-02-26T07:32:51;98908.22;;;4.71;83.56
46942;BME280;32676;52.630;4.896;2024-02-26T07:35:18;98882.06;;;4.52;83.17
46942;BME280;32676;52.630;4.896;2024-02-26T07:37:47;98902.66;;;4.58;82.96
46942;BME280;32676;52.630;4.896;2024-02-26T07:40:15;98904.22;;;4.63;82.75
46942;BME280;32676;52.630;4.896;2024-02-26T07:42:41;98938.34;;;4.77;82.67
46942;BME280;32676;52.630;4.896;2024-02-26T07:45:09;98818.88;;;4.06;82.51
46942;BME280;32676;52.630;4.896;2024-02-26T07:47:37;98942.56;;;4.79;82.56
46942;BME280;32676;52.630;4.896;2024-02-26T07:50:07;98936.75;;;4.73;82.58
46942;BME280;32676;52.630;4.896;2024-02-26T07:52:33;98983.91;;;4.87;82.46
46942;BME280;32676;52.630;4.896;2024-02-26T07:55:00;98956.84;;;4.69;82.38
46942;BME280;32676;52.630;4.896;2024-02-26T07:57:29;98972.72;;;4.85;82.65
46942;BME280;32676;52.630;4.896;2024-02-26T07:59:56;98952.50;;;4.70;82.58
46942;BME280;32676;52.630;4.896;2024-02-26T08:02:23;98978.75;;;4.86;82.30
46942;BME280;32676;52.630;4.896;2024-02-26T08:04:51;98951.59;;;4.71;82.42
46942;BME280;32676;52.630;4.896;2024-02-26T08:07:18;98896.69;;;4.33;82.38
46942;BME280;32676;52.630;4.896;2024-02-26T08:09:47;98983.25;;;4.82;82.51
46942;BME280;32676;52.630;4.896;2024-02-26T08:12:13;98959.63;;;4.65;82.58
46942;BME280;32676;52.630;4.896;2024-02-26T08:14:40;98920.91;;;4.35;82.65
46942;BME280;32676;52.630;4.896;2024-02-26T08:17:08;98988.47;;;4.82;82.62
46942;BME280;32676;52.630;4.896;2024-02-26T08:19:35;98981.81;;;4.75;82.65
46942;BME280;32676;52.630;4.896;2024-02-26T08:22:03;98967.44;;;4.65;82.56
46942;BME280;32676;52.630;4.896;2024-02-26T08:24:30;99003.94;;;4.85;82.46
46942;BME280;32676;52.630;4.896;2024-02-26T08:26:57;99002.25;;;4.84;82.51
46942;BME280;32676;52.630;4.896;2024-02-26T08:29:23;98912.41;;;4.30;82.56
46942;BME280;32676;52.630;4.896;2024-02-26T08:31:50;98987.00;;;4.75;82.40
46942;BME280;32676;52.630;4.896;2024-02-26T08:34:16;98962.50;;;4.58;82.34
46942;BME280;32676;52.630;4.896;2024-02-26T08:36:43;99031.31;;;4.95;82.37
46942;BME280;32676;52.630;4.896;2024-02-26T08:39:11;99004.28;;;4.76;82.55
46942;BME280;32676;52.630;4.896;2024-02-26T08:41:39;99039.03;;;4.98;82.37
46942;BME280;32676;52.630;4.896;2024-02-26T08:44:05;98897.72;;;4.05;82.05
46942;BME280;32676;52.630;4.896;2024-02-26T08:46:32;98923.94;;;4.22;82.01
46942;BME280;32676;52.630;4.896;2024-02-26T08:48:58;99033.31;;;4.89;81.81
46942;BME280;32676;52.630;4.896;2024-02-26T08:51:25;99052.81;;;5.00;81.55
46942;BME280;32676;52.630;4.896;2024-02-26T08:53:52;99051.31;;;4.95;81.54
46942;BME280;32676;52.630;4.896;2024-02-26T08:56:20;99063.97;;;5.04;81.58
46942;BME280;32676;52.630;4.896;2024-02-26T08:58:47;99053.97;;;4.93;81.42
46942;BME280;32676;52.630;4.896;2024-02-26T09:01:21;98993.84;;;4.54;81.24
46942;BME280;32676;52.630;4.896;2024-02-26T09:03:48;99070.91;;;5.04;81.02
46942;BME280;32676;52.630;4.896;2024-02-26T09:06:15;99011.91;;;4.58;81.07
46942;BME280;32676;52.630;4.896;2024-02-26T09:08:42;99074.78;;;4.93;80.77
46942;BME280;32676;52.630;4.896;2024-02-26T09:11:08;99117.31;;;5.16;81.02
46942;BME280;32676;52.630;4.896;2024-02-26T09:13:37;99110.88;;;5.03;80.73
46942;BME280;32676;52.630;4.896;2024-02-26T09:16:04;99108.38;;;4.99;80.59
46942;BME280;32676;52.630;4.896;2024-02-26T09:18:31;99132.09;;;5.15;80.53
46942;BME280;32676;52.630;4.896;2024-02-26T09:20:57;99072.44;;;4.86;80.45
46942;BME280;32676;52.630;4.896;2024-02-26T09:23:24;99110.75;;;5.06;80.35
46942;BME280;32676;52.630;4.896;2024-02-26T09:25:51;99090.16;;;4.99;80.25
46942;BME280;32676;52.630;4.896;2024-02-26T09:28:17;99058.03;;;4.77;80.19
46942;BME280;32676;52.630;4.896;2024-02-26T09:30:47;99133.72;;;5.18;80.10
46942;BME280;32676;52.630;4.896;2024-02-26T09:33:14;99146.63;;;5.21;80.15
46942;BME280;32676;52.630;4.896;2024-02-26T09:35:41;99099.19;;;4.89;80.18
46942;BME280;32676;52.630;4.896;2024-02-26T09:38:07;99027.56;;;4.33;79.90
46942;BME280;32676;52.630;4.896;2024-02-26T09:40:34;99078.88;;;4.77;80.00
46942;BME280;32676;52.630;4.896;2024-02-26T09:43:01;99193.94;;;5.32;79.87
46942;BME280;32676;52.630;4.896;2024-02-26T09:45:28;99211.16;;;5.36;79.82
46942;BME280;32676;52.630;4.896;2024-02-26T09:47:57;99176.63;;;5.08;79.72
46942;BME280;32676;52.630;4.896;2024-02-26T09:50:24;99253.31;;;5.48;79.72
46942;BME280;32676;52.630;4.896;2024-02-26T09:52:51;99219.63;;;5.18;79.56
46942;BME280;32676;52.630;4.896;2024-02-26T09:55:18;99267.47;;;5.41;79.54
46942;BME280;32676;52.630;4.896;2024-02-26T09:57:46;99256.00;;;5.21;79.44
46942;BME280;32676;52.630;4.896;2024-02-26T10:00:17;99359.25;;;5.71;79.65
46942;BME280;32676;52.630;4.896;2024-02-26T10:02:45;99205.56;;;4.75;79.69
46942;BME280;32676;52.630;4.896;2024-02-26T10:05:17;99337.28;;;5.54;79.41
46942;BME280;32676;52.630;4.896;2024-02-26T10:07:44;99236.34;;;4.87;79.09
46942;BME280;32676;52.630;4.896;2024-02-26T10:10:11;99393.78;;;5.77;78.89
46942;BME280;32676;52.630;4.896;2024-02-26T10:12:39;99407.63;;;5.80;78.83
46942;BME280;32676;52.630;4.896;2024-02-26T10:15:06;99428.38;;;5.83;78.72
46942;BME280;32676;52.630;4.896;2024-02-26T10:17:33;99414.91;;;5.70;78.48
46942;BME280;32676;52.630;4.896;2024-02-26T10:20:12;99435.22;;;5.85;78.32
46942;BME280;32676;52.630;4.896;2024-02-26T10:22:41;99458.34;;;5.96;78.07
46942;BME280;32676;52.630;4.896;2024-02-26T10:25:08;99436.38;;;5.76;78.36
46942;BME280;32676;52.630;4.896;2024-02-26T10:27:35;99401.09;;;5.43;78.12
46942;BME280;32676;52.630;4.896;2024-02-26T10:30:03;99396.06;;;5.36;78.21
46942;BME280;32676;52.630;4.896;2024-02-26T10:32:30;99404.41;;;5.48;78.18
46942;BME280;32676;52.630;4.896;2024-02-26T10:34:57;99509.53;;;5.99;77.94
46942;BME280;32676;52.630;4.896;2024-02-26T10:37:23;99374.19;;;5.17;77.72
46942;BME280;32676;52.630;4.896;2024-02-26T10:39:52;99532.72;;;6.06;77.91
46942;BME280;32676;52.630;4.896;2024-02-26T10:42:18;99489.38;;;5.77;77.88
46942;BME280;32676;52.630;4.896;2024-02-26T10:44:45;99476.41;;;5.75;77.84
46942;BME280;32676;52.630;4.896;2024-02-26T10:47:14;99438.75;;;5.59;77.42
46942;BME280;32676;52.630;4.896;2024-02-26T10:49:46;99509.22;;;6.08;77.64
46942;BME280;32676;52.630;4.896;2024-02-26T10:52:13;99449.91;;;5.63;77.41
46942;BME280;32676;52.630;4.896;2024-02-26T10:54:41;99465.22;;;5.72;77.23
46942;BME280;32676;52.630;4.896;2024-02-26T10:57:13;99375.25;;;5.11;77.21
46942;BME280;32676;52.630;4.896;2024-02-26T10:59:42;99502.06;;;5.88;77.22
46942;BME280;32676;52.630;4.896;2024-02-26T11:02:10;99529.66;;;5.93;77.32
46942;BME280;32676;52.630;4.896;2024-02-26T11:04:42;99551.56;;;6.14;77.54
46942;BME280;32676;52.630;4.896;2024-02-26T11:07:09;99409.41;;;5.27;77.39
46942;BME280;32676;52.630;4.896;2024-02-26T11:09:37;99553.50;;;6.09;77.25
46942;BME280;32676;52.630;4.896;2024-02-26T11:12:10;99533.97;;;5.94;77.47
46942;BME280;32676;52.630;4.896;2024-02-26T11:14:40;99579.13;;;6.22;77.28
46942;BME280;32676;52.630;4.896;2024-02-26T11:17:11;99549.31;;;6.04;77.27
46942;BME280;32676;52.630;4.896;2024-02-26T11:19:41;99439.50;;;5.36;77.25
46942;BME280;32676;52.630;4.896;2024-02-26T11:22:08;99510.56;;;5.68;77.24
46942;BME280;32676;52.630;4.896;2024-02-26T11:24:35;99540.94;;;5.94;77.40
46942;BME280;32676;52.630;4.896;2024-02-26T11:27:07;99517.09;;;5.80;77.34
46942;BME280;32676;52.630;4.896;2024-02-26T11:29:41;99445.69;;;5.33;77.24
46942;BME280;32676;52.630;4.896;2024-02-26T11:32:10;99600.16;;;6.17;77.50
46942;BME280;32676;52.630;4.896;2024-02-26T11:34:37;99513.06;;;5.69;77.38
46942;BME280;32676;52.630;4.896;2024-02-26T11:37:11;99543.94;;;5.82;77.60
46942;BME280;32676;52.630;4.896;2024-02-26T11:39:40;99528.94;;;5.63;77.66
46942;BME280;32676;52.630;4.896;2024-02-26T11:42:07;99617.69;;;6.13;77.69
46942;BME280;32676;52.630;4.896;2024-02-26T11:44:35;99569.19;;;5.81;77.86
46942;BME280;32676;52.630;4.896;2024-02-26T11:47:11;99582.16;;;5.83;77.97
46942;BME280;32676;52.630;4.896;2024-02-26T11:49:38;99693.00;;;6.49;77.98
46942;BME280;32676;52.630;4.896;2024-02-26T11:52:07;99725.91;;;6.53;77.82
46942;BME280;32676;52.630;4.896;2024-02-26T11:54:43;99737.94;;;6.58;77.87
46942;BME280;32676;52.630;4.896;2024-02-26T11:57:24;99734.63;;;6.52;78.01
46942;BME280;32676;52.630;4.896;2024-02-26T11:59:52;99751.22;;;6.51;77.66
46942;BME280;32676;52.630;4.896;2024-02-26T12:02:40;99707.34;;;6.36;77.41
46942;BME280;32676;52.630;4.896;2024-02-26T12:05:07;99722.50;;;6.51;76.97
46942;BME280;32676;52.630;4.896;2024-02-26T12:07:37;99728.03;;;6.42;76.96
46942;BME280;32676;52.630;4.896;2024-02-26T12:10:15;99750.25;;;6.54;76.96
46942;BME280;32676;52.630;4.896;2024-02-26T12:12:42;99734.75;;;6.49;76.90
46942;BME280;32676;52.630;4.896;2024-02-26T12:15:09;99769.94;;;6.64;76.68
46942;BME280;32676;52.630;4.896;2024-02-26T12:17:40;99715.97;;;6.38;76.29
46942;BME280;32676;52.630;4.896;2024-02-26T12:20:11;99746.56;;;6.60;76.10
46942;BME280;32676;52.630;4.896;2024-02-26T12:22:40;99719.28;;;6.43;76.05
46942;BME280;32676;52.630;4.896;2024-02-26T12:25:08;99645.97;;;5.99;75.94
46942;BME280;32676;52.630;4.896;2024-02-26T12:27:35;99678.16;;;6.25;75.85
46942;BME280;32676;52.630;4.896;2024-02-26T12:30:02;99558.66;;;5.57;75.51
46942;BME280;32676;52.630;4.896;2024-02-26T12:32:29;99522.53;;;5.47;75.39
46942;BME280;32676;52.630;4.896;2024-02-26T12:34:58;99594.19;;;5.87;75.56
46942;BME280;32676;52.630;4.896;2024-02-26T12:37:25;99685.34;;;6.43;75.54
46942;BME280;32676;52.630;4.896;2024-02-26T12:39:52;99519.03;;;5.48;75.60
46942;BME280;32676;52.630;4.896;2024-02-26T12:42:19;99674.22;;;6.38;75.61
46942;BME280;32676;52.630;4.896;2024-02-26T12:44:46;99665.50;;;6.39;75.57
46942;BME280;32676;52.630;4.896;2024-02-26T12:47:13;99659.00;;;6.26;75.39
46942;BME280;32676;52.630;4.896;2024-02-26T12:49:42;99599.19;;;5.93;75.41
46942;BME280;32676;52.630;4.896;2024-02-26T12:52:13;99659.81;;;6.28;75.67
46942;BME280;32676;52.630;4.896;2024-02-26T12:54:41;99698.41;;;6.43;75.49
46942;BME280;32676;52.630;4.896;2024-02-26T12:57:09;99695.97;;;6.39;75.21
46942;BME280;32676;52.630;4.896;2024-02-26T12:59:37;99638.19;;;5.98;75.44
46942;BME280;32676;52.630;4.896;2024-02-26T13:02:05;99722.50;;;6.51;75.42
46942;BME280;32676;52.630;4.896;2024-02-26T13:04:32;99703.63;;;6.43;75.50
46942;BME280;32676;52.630;4.896;2024-02-26T13:06:59;99550.47;;;5.42;75.31
46942;BME280;32676;52.630;4.896;2024-02-26T13:09:32;99664.72;;;6.10;75.46
46942;BME280;32676;52.630;4.896;2024-02-26T13:11:59;99712.56;;;6.36;75.39